Terminal Aerodrome Forecast
Issued by NWS

Home | Current Version | Previous Version | Graphics & Text | Print | Product List | Glossary On
Versions: 1 2 3 4 5 6 7 8 9 10 11 12 13 14 15 16 17 18 19
417
FTUS43 KBIS 231726
TAFDIK
TAF
KDIK 231726Z 2318/2418 02009KT P6SM -RA BKN050 OVC080
     FM232200 01007KT P6SM VCSH OVC080
     FM240100 35005KT P6SM OVC100
     FM240600 32005KT 4SM BR SCT110
     FM240700 33005KT 1 1/2SM BR SCT060
     FM241400 35005KT P6SM FEW050=

USA.gov is the U.S. government's official web portal to all federal, state and local government web resources and services.